Thursday, September 18, 2014
07:46 UTC
  |  Log In   |  Register Free
Airport Search:

Ellington Field Airport
(KEFD)

FAA data valid effective July 24, 2014 until September 18, 2014 (unless otherwise noted).

 
 
 
 
 
 
 
 
 
 
 
 
 
 

Current Aviation Weather for Ellington Field Airport (KEFD)

The most recent METAR observation for KEFD was updated at: 0710
METAR Summary (Translated METAR)
KEFD
180550Z 00000KT 10SM FEW180 BKN250 25/25 A2991
KHOU
180653Z 04003KT 10SM FEW017 BKN150 25/24 A2989 RMK AO2 SLP127 T02500244
(6.7 nm NW from KEFD)
KLVJ
180653Z AUTO 00000KT 10SM CLR A2991 RMK AO2 SLP129 $
(6.8 nm SW from KEFD)
TAF Summary (Translated TAF)
KEFD
1804/1910 15006KT 9999 FEW015 BKN100 OVC250 QNH2987INS TEMPO 1818/1824 15009KT 8000 -TSRA OVC020CB BECMG 1902/1903 10006KT 9999 SCT040 BKN075 QNH2993INS TX25/1806Z TN22/1909Z AMD 180405
KHOU
(6.7 nm NW from KEFD)
180524Z 1806/1906 VRB02KT P6SM FEW006 BKN250 FM181000 VRB04KT P6SM VCTS FEW006 SCT015CB BKN250 TEMPO 1810/1814 VRB15KT 2SM +TSRA SCT008 BKN015CB FM181400 07005KT P6SM VCTS BKN025CB BKN250 FM181900 09007KT P6SM VCTS SCT030CB BKN250
  Airport Weather Conditions for KEFD

 Current Weather at EFD
77° F
Mostly Cloudy
North winds at 0.0 mph
EFD NOAA Radar

Pressure: 29.91 in
Humidity: 100%
Wind: Calm
Dew Point: 77.0°F
Visibility: 10.00 mi


Airport Weather Forecast for KEFD

Translated METAR and TAF for KEFD
Translated METAR for KEFD (0740 UTC 18 September 2014)
found at http://aviationweather.gov/adds/metars/
 
METAR text: KEFD 180550Z 00000KT 10SM FEW180 BKN250 25/25 A2991
Conditions at: KEFD (HOUSTON/ELLINGTO, TX, US) observed 0550 UTC 18 September 2014
Temperature: 25.0°C (77°F)
Dewpoint: 25.0°C (77°F) [RH = 100%]
Pressure (altimeter): 29.91 inches Hg (1013.0 mb)
Winds: calm
Visibility: 10 or more miles (16+ km)
Ceiling: 25000 feet AGL
Clouds: few clouds at 18000 feet AGL
broken clouds at 25000 feet AGL
Weather: no significant weather observed at this time
Translated TAF for KEFD
Forecast for: KEFD (HOUSTON/ELLINGTO, TX, US)
TAF Text: TAF AMD KEFD 1804/1910 15006KT 9999 FEW015 BKN100 OVC250 QNH2987INS
Forecast period: 0400 UTC 18 September 2014 to 0200 UTC 19 September 2014
Forecast type: FROM: standard forecast or significant change
Winds: from the SSE (150 degrees) at 7 MPH (6 knots; 3.1 m/s)
Visibility: 6 or more miles (10+ km)
Ceiling: 10000 feet AGL
Clouds: few clouds at 1500 feet AGL
broken clouds at 10000 feet AGL
overcast cloud deck at 25000 feet AGL
Weather: no significant weather forecast for this period
TAF Text: TEMPO 1818/1824 15009KT 8000 -TSRA OVC020CB
Forecast period: 1800 UTC 18 September 2014 to 0000 UTC 19 September 2014
Forecast type: TEMPORARY: The following changes expected for less than half the time period
Winds: from the SSE (150 degrees) at 10 MPH (9 knots; 4.7 m/s)
Visibility: 5 miles (8 km)
Ceiling: 2000 feet AGL
Clouds: overcast cloud deck at 2000 feet AGL
Weather: -TSRA  (light rain associated with thunderstorm(s))
TAF Text: BECMG 1902/1903 10006KT 9999 SCT040 BKN075 QNH2993INS TX25/1806Z TN22/1909Z AMD 180405
Forecast period: 0200 to 1000 UTC 19 September 2014
Forecast type: BECOMING: Conditions expected to become as follows by 0300 UTC 19 September 2014
Winds: from the E (100 degrees) at 7 MPH (6 knots; 3.1 m/s)
Visibility: 6 or more miles (10+ km)
Ceiling: 7500 feet AGL
Clouds: scattered clouds at 4000 feet AGL
broken clouds at 7500 feet AGL
Weather: no significant weather forecast for this period

Find All Airport Services Find A Hotel Find A Rental Car Find A Golf Course Find A Restaurant $100 Hamburger



FBO's on the Field
FBO Company Facility Photos Services Transportation Aviation Fuel Prices: Prices include tax
Catering Weather Repair Courtesy Rental Type 100LL JetA JetA+ MOGAS 8087
 
Southwest Airport Services

This FBO has not yet been rated
FS:Texaco
Last Updated: Sep-04
Login to update fuel prices
SS:
Contact Southwest Airport ServicesMore FBO Information
 
Add another FBO Facility Photos Catering Weather Repair Courtesy Rental Type 100LL JetA JetA+ MOGAS 8087
Services Transportation Aviation Fuel Prices: Prices include tax


model-print
model-print
model-print
model-print